Honaker, Kentucky
Current Conditions -  °F | °C
As of 8:55 AM on Saturday 22 Nov 2014 (Local Time) from KPBX Reporting Station
Clear Clear  
Wind Chill: 35°   Ceiling: Unl
Heat Index: 38°   Visibility: 10mi
Dew Point: 18°   Wind: 5mph
Humidity: 44%   Direction: 140°SE
Pressure: 30.37"   Gusts: NA
Location:  37.5777°N, 82.6966°W
Report Text: KPBX 221355Z AUTO 14004KT 10SM CLR 03/M08 A3037 RMK AO2 T00341080
Loading
Personal Weather Stations






























Interactive Weather Map New forecast layout! Learn more

10-Day Weather Forecast

Advertisements
Track Severe Weather on mobile